sensor_id;sensor_type;location;lat;lon;timestamp;temperature;humidity
24614;DHT22;12760;46.296;25.290;2023-04-03T00:00:57;10.40;99.90
24614;DHT22;12760;46.296;25.290;2023-04-03T00:03:23;10.40;99.90
24614;DHT22;12760;46.296;25.290;2023-04-03T00:05:48;10.20;99.90
24614;DHT22;12760;46.296;25.290;2023-04-03T00:08:15;10.10;99.90
24614;DHT22;12760;46.296;25.290;2023-04-03T00:10:40;10.00;99.90
24614;DHT22;12760;46.296;25.290;2023-04-03T00:13:07;10.00;99.90
24614;DHT22;12760;46.296;25.290;2023-04-03T00:15:34;10.00;99.90
24614;DHT22;12760;46.296;25.290;2023-04-03T00:18:00;10.00;99.90
24614;DHT22;12760;46.296;25.290;2023-04-03T00:20:26;10.10;99.90
24614;DHT22;12760;46.296;25.290;2023-04-03T00:22:53;10.10;99.90
24614;DHT22;12760;46.296;25.290;2023-04-03T00:25:18;10.20;99.90
24614;DHT22;12760;46.296;25.290;2023-04-03T00:27:44;10.30;99.90
24614;DHT22;12760;46.296;25.290;2023-04-03T00:30:16;10.30;99.90
24614;DHT22;12760;46.296;25.290;2023-04-03T00:32:42;10.40;99.90
24614;DHT22;12760;46.296;25.290;2023-04-03T00:35:08;10.50;99.90
24614;DHT22;12760;46.296;25.290;2023-04-03T00:37:34;10.50;99.90
24614;DHT22;12760;46.296;25.290;2023-04-03T00:40:00;10.40;99.90
24614;DHT22;12760;46.296;25.290;2023-04-03T00:42:26;10.40;99.90
24614;DHT22;12760;46.296;25.290;2023-04-03T00:47:26;10.50;99.90
24614;DHT22;12760;46.296;25.290;2023-04-03T00:49:52;10.50;99.90
24614;DHT22;12760;46.296;25.290;2023-04-03T00:52:22;10.50;99.90
24614;DHT22;12760;46.296;25.290;2023-04-03T00:54:50;10.40;99.90
24614;DHT22;12760;46.296;25.290;2023-04-03T00:57:17;10.40;99.90
24614;DHT22;12760;46.296;25.290;2023-04-03T00:59:47;10.40;99.90
24614;DHT22;12760;46.296;25.290;2023-04-03T01:02:13;10.40;99.90
24614;DHT22;12760;46.296;25.290;2023-04-03T01:04:42;10.40;99.90
24614;DHT22;12760;46.296;25.290;2023-04-03T01:09:35;10.30;99.90
24614;DHT22;12760;46.296;25.290;2023-04-03T01:12:22;10.30;99.90
24614;DHT22;12760;46.296;25.290;2023-04-03T01:14:56;10.30;99.90
24614;DHT22;12760;46.296;25.290;2023-04-03T01:22:59;10.30;99.90
24614;DHT22;12760;46.296;25.290;2023-04-03T01:25:31;10.30;99.90
24614;DHT22;12760;46.296;25.290;2023-04-03T01:27:57;10.40;99.90
24614;DHT22;12760;46.296;25.290;2023-04-03T01:30:28;10.40;99.90
24614;DHT22;12760;46.296;25.290;2023-04-03T01:32:56;10.50;99.90
24614;DHT22;12760;46.296;25.290;2023-04-03T01:35:22;10.50;99.90
24614;DHT22;12760;46.296;25.290;2023-04-03T01:37:48;10.50;99.90
24614;DHT22;12760;46.296;25.290;2023-04-03T01:40:14;10.40;99.90
24614;DHT22;12760;46.296;25.290;2023-04-03T01:42:40;10.30;99.90
24614;DHT22;12760;46.296;25.290;2023-04-03T01:45:06;10.20;99.90
24614;DHT22;12760;46.296;25.290;2023-04-03T01:47:31;10.10;99.90
24614;DHT22;12760;46.296;25.290;2023-04-03T01:49:57;10.00;99.90
24614;DHT22;12760;46.296;25.290;2023-04-03T01:52:23;9.90;99.90
24614;DHT22;12760;46.296;25.290;2023-04-03T01:54:49;9.80;99.90
24614;DHT22;12760;46.296;25.290;2023-04-03T01:57:16;9.80;99.90
24614;DHT22;12760;46.296;25.290;2023-04-03T01:59:42;9.70;99.90
24614;DHT22;12760;46.296;25.290;2023-04-03T02:02:08;9.70;99.90
24614;DHT22;12760;46.296;25.290;2023-04-03T02:04:34;9.70;99.90
24614;DHT22;12760;46.296;25.290;2023-04-03T02:06:59;9.70;99.90
24614;DHT22;12760;46.296;25.290;2023-04-03T02:09:25;9.80;99.90
24614;DHT22;12760;46.296;25.290;2023-04-03T02:11:52;9.80;99.90
24614;DHT22;12760;46.296;25.290;2023-04-03T02:14:18;9.80;99.90
24614;DHT22;12760;46.296;25.290;2023-04-03T02:16:44;9.80;99.90
24614;DHT22;12760;46.296;25.290;2023-04-03T02:19:10;9.90;99.90
24614;DHT22;12760;46.296;25.290;2023-04-03T02:21:36;9.90;99.90
24614;DHT22;12760;46.296;25.290;2023-04-03T02:24:01;9.90;99.90
24614;DHT22;12760;46.296;25.290;2023-04-03T02:26:27;9.90;99.90
24614;DHT22;12760;46.296;25.290;2023-04-03T02:28:53;10.10;99.90
24614;DHT22;12760;46.296;25.290;2023-04-03T02:31:18;10.20;99.90
24614;DHT22;12760;46.296;25.290;2023-04-03T02:33:44;10.20;99.90
24614;DHT22;12760;46.296;25.290;2023-04-03T02:36:10;10.30;99.90
24614;DHT22;12760;46.296;25.290;2023-04-03T02:38:36;10.20;99.90
24614;DHT22;12760;46.296;25.290;2023-04-03T02:41:03;10.30;99.90
24614;DHT22;12760;46.296;25.290;2023-04-03T02:43:29;10.20;99.90
24614;DHT22;12760;46.296;25.290;2023-04-03T02:45:55;10.20;99.90
24614;DHT22;12760;46.296;25.290;2023-04-03T02:48:21;10.20;99.90
24614;DHT22;12760;46.296;25.290;2023-04-03T02:50:47;10.30;99.90
24614;DHT22;12760;46.296;25.290;2023-04-03T02:53:13;10.30;99.90
24614;DHT22;12760;46.296;25.290;2023-04-03T02:55:38;10.30;99.90
24614;DHT22;12760;46.296;25.290;2023-04-03T02:58:04;10.40;99.90
24614;DHT22;12760;46.296;25.290;2023-04-03T03:00:30;10.30;99.90
24614;DHT22;12760;46.296;25.290;2023-04-03T03:02:56;10.30;99.90
24614;DHT22;12760;46.296;25.290;2023-04-03T03:05:21;10.30;99.90
24614;DHT22;12760;46.296;25.290;2023-04-03T03:07:47;10.30;99.90
24614;DHT22;12760;46.296;25.290;2023-04-03T03:10:13;10.20;99.90
24614;DHT22;12760;46.296;25.290;2023-04-03T03:12:39;10.20;99.90
24614;DHT22;12760;46.296;25.290;2023-04-03T03:15:06;10.20;99.90
24614;DHT22;12760;46.296;25.290;2023-04-03T03:17:32;10.20;99.90
24614;DHT22;12760;46.296;25.290;2023-04-03T03:19:58;10.20;99.90
24614;DHT22;12760;46.296;25.290;2023-04-03T03:22:24;10.10;99.90
24614;DHT22;12760;46.296;25.290;2023-04-03T03:24:50;10.10;99.90
24614;DHT22;12760;46.296;25.290;2023-04-03T03:27:15;10.00;99.90
24614;DHT22;12760;46.296;25.290;2023-04-03T03:29:42;9.90;99.90
24614;DHT22;12760;46.296;25.290;2023-04-03T03:32:08;9.90;99.90
24614;DHT22;12760;46.296;25.290;2023-04-03T03:34:33;10.00;99.90
24614;DHT22;12760;46.296;25.290;2023-04-03T03:36:59;10.00;99.90
24614;DHT22;12760;46.296;25.290;2023-04-03T03:39:26;10.10;99.90
24614;DHT22;12760;46.296;25.290;2023-04-03T03:41:51;10.10;99.90
24614;DHT22;12760;46.296;25.290;2023-04-03T03:44:19;10.10;99.90
24614;DHT22;12760;46.296;25.290;2023-04-03T03:46:45;10.20;99.90
24614;DHT22;12760;46.296;25.290;2023-04-03T03:49:11;10.20;99.90
24614;DHT22;12760;46.296;25.290;2023-04-03T03:51:38;10.20;99.90
24614;DHT22;12760;46.296;25.290;2023-04-03T03:54:04;10.20;99.90
24614;DHT22;12760;46.296;25.290;2023-04-03T03:56:30;10.20;99.90
24614;DHT22;12760;46.296;25.290;2023-04-03T03:58:56;10.20;99.90
24614;DHT22;12760;46.296;25.290;2023-04-03T04:01:22;10.20;99.90
24614;DHT22;12760;46.296;25.290;2023-04-03T04:03:48;10.20;99.90
24614;DHT22;12760;46.296;25.290;2023-04-03T04:06:15;10.20;99.90
24614;DHT22;12760;46.296;25.290;2023-04-03T04:08:41;10.20;99.90
24614;DHT22;12760;46.296;25.290;2023-04-03T04:11:07;10.20;99.90
24614;DHT22;12760;46.296;25.290;2023-04-03T04:13:33;10.20;99.90
24614;DHT22;12760;46.296;25.290;2023-04-03T04:15:59;10.20;99.90
24614;DHT22;12760;46.296;25.290;2023-04-03T04:18:25;10.20;99.90
24614;DHT22;12760;46.296;25.290;2023-04-03T04:20:51;10.20;99.90
24614;DHT22;12760;46.296;25.290;2023-04-03T04:23:18;10.20;99.90
24614;DHT22;12760;46.296;25.290;2023-04-03T04:25:50;10.20;99.90
24614;DHT22;12760;46.296;25.290;2023-04-03T04:28:16;10.20;99.90
24614;DHT22;12760;46.296;25.290;2023-04-03T04:30:42;10.20;99.90
24614;DHT22;12760;46.296;25.290;2023-04-03T04:33:08;10.20;99.90
24614;DHT22;12760;46.296;25.290;2023-04-03T04:35:34;10.20;99.90
24614;DHT22;12760;46.296;25.290;2023-04-03T04:38:00;10.20;99.90
24614;DHT22;12760;46.296;25.290;2023-04-03T04:40:26;10.30;99.90
24614;DHT22;12760;46.296;25.290;2023-04-03T04:42:52;10.20;99.90
24614;DHT22;12760;46.296;25.290;2023-04-03T04:45:18;10.20;99.90
24614;DHT22;12760;46.296;25.290;2023-04-03T04:47:44;10.20;99.90
24614;DHT22;12760;46.296;25.290;2023-04-03T04:50:10;10.30;99.90
24614;DHT22;12760;46.296;25.290;2023-04-03T04:52:37;10.30;99.90
24614;DHT22;12760;46.296;25.290;2023-04-03T04:55:03;10.20;99.90
24614;DHT22;12760;46.296;25.290;2023-04-03T04:57:28;10.30;99.90
24614;DHT22;12760;46.296;25.290;2023-04-03T04:59:54;10.30;99.90
24614;DHT22;12760;46.296;25.290;2023-04-03T05:02:20;10.20;99.90
24614;DHT22;12760;46.296;25.290;2023-04-03T05:04:46;10.30;99.90
24614;DHT22;12760;46.296;25.290;2023-04-03T05:07:12;10.30;99.90
24614;DHT22;12760;46.296;25.290;2023-04-03T05:09:37;10.30;99.90
24614;DHT22;12760;46.296;25.290;2023-04-03T05:12:03;10.30;99.90
24614;DHT22;12760;46.296;25.290;2023-04-03T05:14:29;10.30;99.90
24614;DHT22;12760;46.296;25.290;2023-04-03T05:16:55;10.30;99.90
24614;DHT22;12760;46.296;25.290;2023-04-03T05:19:21;10.30;99.90
24614;DHT22;12760;46.296;25.290;2023-04-03T05:21:48;10.30;99.90
24614;DHT22;12760;46.296;25.290;2023-04-03T05:24:14;10.30;99.90
24614;DHT22;12760;46.296;25.290;2023-04-03T05:26:42;10.30;99.90
24614;DHT22;12760;46.296;25.290;2023-04-03T05:29:08;10.30;99.90
24614;DHT22;12760;46.296;25.290;2023-04-03T05:31:34;10.30;99.90
24614;DHT22;12760;46.296;25.290;2023-04-03T05:34:00;10.40;99.90
24614;DHT22;12760;46.296;25.290;2023-04-03T05:36:26;10.40;99.90
24614;DHT22;12760;46.296;25.290;2023-04-03T05:38:52;10.40;99.90
24614;DHT22;12760;46.296;25.290;2023-04-03T05:41:18;10.50;99.90
24614;DHT22;12760;46.296;25.290;2023-04-03T05:43:46;10.50;99.90
24614;DHT22;12760;46.296;25.290;2023-04-03T05:46:14;10.60;99.90
24614;DHT22;12760;46.296;25.290;2023-04-03T05:48:40;10.50;99.90
24614;DHT22;12760;46.296;25.290;2023-04-03T05:51:07;10.50;99.90
24614;DHT22;12760;46.296;25.290;2023-04-03T05:53:39;10.50;99.90
24614;DHT22;12760;46.296;25.290;2023-04-03T05:56:04;10.50;99.90
24614;DHT22;12760;46.296;25.290;2023-04-03T05:58:30;10.50;99.90
24614;DHT22;12760;46.296;25.290;2023-04-03T06:00:56;10.60;99.90
24614;DHT22;12760;46.296;25.290;2023-04-03T06:03:22;10.50;99.90
24614;DHT22;12760;46.296;25.290;2023-04-03T06:05:48;10.50;99.90
24614;DHT22;12760;46.296;25.290;2023-04-03T06:08:14;10.60;99.90
24614;DHT22;12760;46.296;25.290;2023-04-03T06:10:40;10.60;99.90
24614;DHT22;12760;46.296;25.290;2023-04-03T06:13:06;10.60;99.90
24614;DHT22;12760;46.296;25.290;2023-04-03T06:15:32;10.60;99.90
24614;DHT22;12760;46.296;25.290;2023-04-03T06:17:59;10.70;99.90
24614;DHT22;12760;46.296;25.290;2023-04-03T06:20:25;10.70;99.90
24614;DHT22;12760;46.296;25.290;2023-04-03T06:22:51;10.80;99.90
24614;DHT22;12760;46.296;25.290;2023-04-03T06:25:17;10.80;99.90
24614;DHT22;12760;46.296;25.290;2023-04-03T06:27:44;10.80;99.90
24614;DHT22;12760;46.296;25.290;2023-04-03T06:30:11;10.90;99.90
24614;DHT22;12760;46.296;25.290;2023-04-03T06:32:37;11.00;99.90
24614;DHT22;12760;46.296;25.290;2023-04-03T06:35:04;11.00;99.90
24614;DHT22;12760;46.296;25.290;2023-04-03T06:37:30;11.00;99.90
24614;DHT22;12760;46.296;25.290;2023-04-03T06:39:56;11.10;99.90
24614;DHT22;12760;46.296;25.290;2023-04-03T06:42:22;11.20;99.90
24614;DHT22;12760;46.296;25.290;2023-04-03T06:44:48;11.20;99.90
24614;DHT22;12760;46.296;25.290;2023-04-03T06:47:15;11.20;99.90
24614;DHT22;12760;46.296;25.290;2023-04-03T06:49:41;11.30;99.90
24614;DHT22;12760;46.296;25.290;2023-04-03T06:52:08;11.20;99.90
24614;DHT22;12760;46.296;25.290;2023-04-03T06:54:34;11.30;99.90
24614;DHT22;12760;46.296;25.290;2023-04-03T06:57:00;11.50;99.90
24614;DHT22;12760;46.296;25.290;2023-04-03T06:59:26;11.70;99.90
24614;DHT22;12760;46.296;25.290;2023-04-03T07:01:52;11.90;99.90
24614;DHT22;12760;46.296;25.290;2023-04-03T07:04:18;11.90;99.90
24614;DHT22;12760;46.296;25.290;2023-04-03T07:06:46;11.70;99.90
24614;DHT22;12760;46.296;25.290;2023-04-03T07:09:15;11.60;99.90
24614;DHT22;12760;46.296;25.290;2023-04-03T07:11:41;11.60;99.90
24614;DHT22;12760;46.296;25.290;2023-04-03T07:14:07;11.60;99.90
24614;DHT22;12760;46.296;25.290;2023-04-03T07:16:34;11.60;99.90
24614;DHT22;12760;46.296;25.290;2023-04-03T07:19:00;11.60;99.90
24614;DHT22;12760;46.296;25.290;2023-04-03T07:21:27;11.50;99.90
24614;DHT22;12760;46.296;25.290;2023-04-03T07:23:53;11.60;99.90
24614;DHT22;12760;46.296;25.290;2023-04-03T07:26:19;11.60;99.90
24614;DHT22;12760;46.296;25.290;2023-04-03T07:28:46;11.60;99.90
24614;DHT22;12760;46.296;25.290;2023-04-03T07:31:14;11.80;99.90
24614;DHT22;12760;46.296;25.290;2023-04-03T07:33:41;12.10;99.90
24614;DHT22;12760;46.296;25.290;2023-04-03T07:36:09;12.20;99.90
24614;DHT22;12760;46.296;25.290;2023-04-03T07:38:36;12.20;99.90
24614;DHT22;12760;46.296;25.290;2023-04-03T07:41:02;12.30;99.90
24614;DHT22;12760;46.296;25.290;2023-04-03T07:43:28;12.30;99.90
24614;DHT22;12760;46.296;25.290;2023-04-03T07:45:54;12.40;99.90
24614;DHT22;12760;46.296;25.290;2023-04-03T07:48:22;12.60;99.90
24614;DHT22;12760;46.296;25.290;2023-04-03T07:50:48;12.80;99.90
24614;DHT22;12760;46.296;25.290;2023-04-03T07:53:14;13.00;99.90
24614;DHT22;12760;46.296;25.290;2023-04-03T07:55:40;13.00;99.90
24614;DHT22;12760;46.296;25.290;2023-04-03T07:58:14;13.20;99.90
24614;DHT22;12760;46.296;25.290;2023-04-03T08:00:40;13.50;99.90
24614;DHT22;12760;46.296;25.290;2023-04-03T08:03:08;13.70;99.90
24614;DHT22;12760;46.296;25.290;2023-04-03T08:05:41;13.80;99.90
24614;DHT22;12760;46.296;25.290;2023-04-03T08:08:08;14.00;99.90
24614;DHT22;12760;46.296;25.290;2023-04-03T08:10:34;14.10;99.90
24614;DHT22;12760;46.296;25.290;2023-04-03T08:13:01;14.20;99.90
24614;DHT22;12760;46.296;25.290;2023-04-03T08:15:27;14.10;99.90
24614;DHT22;12760;46.296;25.290;2023-04-03T08:17:53;14.30;99.90
24614;DHT22;12760;46.296;25.290;2023-04-03T08:20:19;14.50;99.90
24614;DHT22;12760;46.296;25.290;2023-04-03T08:22:45;14.50;99.90
24614;DHT22;12760;46.296;25.290;2023-04-03T08:25:10;14.70;99.90
24614;DHT22;12760;46.296;25.290;2023-04-03T08:27:36;14.70;99.90
24614;DHT22;12760;46.296;25.290;2023-04-03T08:30:03;14.50;99.90
24614;DHT22;12760;46.296;25.290;2023-04-03T08:32:29;14.50;99.90
24614;DHT22;12760;46.296;25.290;2023-04-03T08:34:55;14.40;99.90
24614;DHT22;12760;46.296;25.290;2023-04-03T08:37:21;14.30;99.90
24614;DHT22;12760;46.296;25.290;2023-04-03T08:39:47;14.30;99.90
24614;DHT22;12760;46.296;25.290;2023-04-03T08:50:20;14.00;99.90
24614;DHT22;12760;46.296;25.290;2023-04-03T08:52:55;13.90;99.90
24614;DHT22;12760;46.296;25.290;2023-04-03T08:55:22;13.90;99.90
24614;DHT22;12760;46.296;25.290;2023-04-03T08:57:54;13.80;99.90
24614;DHT22;12760;46.296;25.290;2023-04-03T09:00:25;13.80;99.90
24614;DHT22;12760;46.296;25.290;2023-04-03T09:02:56;13.80;99.90
24614;DHT22;12760;46.296;25.290;2023-04-03T09:05:53;13.80;99.90
24614;DHT22;12760;46.296;25.290;2023-04-03T09:08:27;13.80;99.90
24614;DHT22;12760;46.296;25.290;2023-04-03T09:16:45;13.80;99.90
24614;DHT22;12760;46.296;25.290;2023-04-03T09:22:13;13.80;99.90
24614;DHT22;12760;46.296;25.290;2023-04-03T09:24:45;13.70;99.90
24614;DHT22;12760;46.296;25.290;2023-04-03T09:27:12;13.60;99.90
24614;DHT22;12760;46.296;25.290;2023-04-03T09:29:43;13.60;99.90
24614;DHT22;12760;46.296;25.290;2023-04-03T09:32:26;13.70;99.90
24614;DHT22;12760;46.296;25.290;2023-04-03T09:34:54;13.60;99.90
24614;DHT22;12760;46.296;25.290;2023-04-03T09:40:03;13.50;99.90
24614;DHT22;12760;46.296;25.290;2023-04-03T09:42:30;13.50;99.90
24614;DHT22;12760;46.296;25.290;2023-04-03T09:45:02;13.40;99.90
24614;DHT22;12760;46.296;25.290;2023-04-03T09:47:30;13.40;99.90
24614;DHT22;12760;46.296;25.290;2023-04-03T09:52:44;13.50;99.90
24614;DHT22;12760;46.296;25.290;2023-04-03T09:55:19;13.60;99.90
24614;DHT22;12760;46.296;25.290;2023-04-03T09:57:59;13.70;99.90
24614;DHT22;12760;46.296;25.290;2023-04-03T10:00:30;13.80;99.90
24614;DHT22;12760;46.296;25.290;2023-04-03T10:02:58;13.70;99.90
24614;DHT22;12760;46.296;25.290;2023-04-03T10:05:41;13.80;99.90
24614;DHT22;12760;46.296;25.290;2023-04-03T10:10:41;13.90;99.90
24614;DHT22;12760;46.296;25.290;2023-04-03T10:13:18;14.00;99.90
24614;DHT22;12760;46.296;25.290;2023-04-03T10:15:59;14.20;99.90
24614;DHT22;12760;46.296;25.290;2023-04-03T10:18:39;14.40;99.90
24614;DHT22;12760;46.296;25.290;2023-04-03T10:24:10;15.10;99.90
24614;DHT22;12760;46.296;25.290;2023-04-03T10:26:41;15.30;99.90
24614;DHT22;12760;46.296;25.290;2023-04-03T10:34:43;15.70;99.90
24614;DHT22;12760;46.296;25.290;2023-04-03T10:39:59;16.00;99.90
24614;DHT22;12760;46.296;25.290;2023-04-03T10:42:34;16.10;99.90
24614;DHT22;12760;46.296;25.290;2023-04-03T10:45:24;16.20;99.90
24614;DHT22;12760;46.296;25.290;2023-04-03T10:48:09;16.30;99.90
24614;DHT22;12760;46.296;25.290;2023-04-03T10:50:52;16.30;99.90
24614;DHT22;12760;46.296;25.290;2023-04-03T11:01:36;16.00;99.90
24614;DHT22;12760;46.296;25.290;2023-04-03T11:04:06;15.90;99.90
24614;DHT22;12760;46.296;25.290;2023-04-03T11:06:39;15.70;99.90
24614;DHT22;12760;46.296;25.290;2023-04-03T11:09:28;15.50;99.90
24614;DHT22;12760;46.296;25.290;2023-04-03T11:12:04;15.40;99.90
24614;DHT22;12760;46.296;25.290;2023-04-03T11:14:36;15.30;99.90
24614;DHT22;12760;46.296;25.290;2023-04-03T11:22:23;15.30;99.90
24614;DHT22;12760;46.296;25.290;2023-04-03T11:27:57;15.30;99.90
24614;DHT22;12760;46.296;25.290;2023-04-03T11:36:48;15.10;99.90
24614;DHT22;12760;46.296;25.290;2023-04-03T11:41:41;15.00;99.90
24614;DHT22;12760;46.296;25.290;2023-04-03T11:47:00;15.10;99.90
24614;DHT22;12760;46.296;25.290;2023-04-03T11:50:00;15.10;99.90
24614;DHT22;12760;46.296;25.290;2023-04-03T12:29:33;15.00;99.90
24614;DHT22;12760;46.296;25.290;2023-04-03T12:37:48;15.20;99.90
24614;DHT22;12760;46.296;25.290;2023-04-03T12:40:21;15.30;99.90
24614;DHT22;12760;46.296;25.290;2023-04-03T12:48:32;15.30;99.90
24614;DHT22;12760;46.296;25.290;2023-04-03T12:50:59;15.30;99.90
24614;DHT22;12760;46.296;25.290;2023-04-03T12:53:28;15.10;99.90
24614;DHT22;12760;46.296;25.290;2023-04-03T12:58:48;15.10;99.90
24614;DHT22;12760;46.296;25.290;2023-04-03T13:01:17;15.10;99.90
24614;DHT22;12760;46.296;25.290;2023-04-03T13:03:57;15.20;99.90
24614;DHT22;12760;46.296;25.290;2023-04-03T13:06:26;15.20;99.90
24614;DHT22;12760;46.296;25.290;2023-04-03T13:08:55;15.30;99.90
24614;DHT22;12760;46.296;25.290;2023-04-03T13:11:29;15.30;99.90
24614;DHT22;12760;46.296;25.290;2023-04-03T13:14:02;15.30;99.90
24614;DHT22;12760;46.296;25.290;2023-04-03T13:16:29;15.30;99.90
24614;DHT22;12760;46.296;25.290;2023-04-03T13:18:55;15.30;99.90
24614;DHT22;12760;46.296;25.290;2023-04-03T13:21:26;15.30;99.90
24614;DHT22;12760;46.296;25.290;2023-04-03T13:23:59;15.00;99.90
24614;DHT22;12760;46.296;25.290;2023-04-03T13:26:28;15.00;99.90
24614;DHT22;12760;46.296;25.290;2023-04-03T13:29:00;15.10;99.90
24614;DHT22;12760;46.296;25.290;2023-04-03T13:31:36;15.00;99.90
24614;DHT22;12760;46.296;25.290;2023-04-03T13:36:38;15.00;99.90
24614;DHT22;12760;46.296;25.290;2023-04-03T13:41:47;15.10;99.90
24614;DHT22;12760;46.296;25.290;2023-04-03T13:46:49;15.10;99.90
24614;DHT22;12760;46.296;25.290;2023-04-03T13:51:51;15.10;99.90
24614;DHT22;12760;46.296;25.290;2023-04-03T13:54:33;15.20;99.90
24614;DHT22;12760;46.296;25.290;2023-04-03T13:57:01;15.10;99.90
24614;DHT22;12760;46.296;25.290;2023-04-03T13:59:34;15.10;99.90
24614;DHT22;12760;46.296;25.290;2023-04-03T14:07:14;15.20;99.90
24614;DHT22;12760;46.296;25.290;2023-04-03T14:09:40;15.10;99.90
24614;DHT22;12760;46.296;25.290;2023-04-03T14:12:11;15.10;99.90
24614;DHT22;12760;46.296;25.290;2023-04-03T14:14:39;15.00;99.90
24614;DHT22;12760;46.296;25.290;2023-04-03T14:17:25;14.90;99.90
24614;DHT22;12760;46.296;25.290;2023-04-03T14:19:53;14.90;99.90
24614;DHT22;12760;46.296;25.290;2023-04-03T14:22:25;14.80;99.90
24614;DHT22;12760;46.296;25.290;2023-04-03T14:24:52;14.80;99.90
24614;DHT22;12760;46.296;25.290;2023-04-03T14:27:36;14.70;99.90
24614;DHT22;12760;46.296;25.290;2023-04-03T14:30:05;14.70;99.90
24614;DHT22;12760;46.296;25.290;2023-04-03T14:32:31;14.60;99.90
24614;DHT22;12760;46.296;25.290;2023-04-03T14:34:57;14.40;99.90
24614;DHT22;12760;46.296;25.290;2023-04-03T14:37:26;14.40;99.90
24614;DHT22;12760;46.296;25.290;2023-04-03T14:39:53;14.30;99.90
24614;DHT22;12760;46.296;25.290;2023-04-03T14:42:23;14.30;99.90
24614;DHT22;12760;46.296;25.290;2023-04-03T14:44:49;14.20;99.90
24614;DHT22;12760;46.296;25.290;2023-04-03T14:47:19;14.20;99.90
24614;DHT22;12760;46.296;25.290;2023-04-03T14:49:46;14.30;99.90
24614;DHT22;12760;46.296;25.290;2023-04-03T14:52:22;14.30;99.90
24614;DHT22;12760;46.296;25.290;2023-04-03T14:54:48;14.30;99.90
24614;DHT22;12760;46.296;25.290;2023-04-03T14:57:15;14.20;99.90
24614;DHT22;12760;46.296;25.290;2023-04-03T14:59:43;14.20;99.90
24614;DHT22;12760;46.296;25.290;2023-04-03T15:02:34;14.10;99.90
24614;DHT22;12760;46.296;25.290;2023-04-03T15:05:02;14.10;99.90
24614;DHT22;12760;46.296;25.290;2023-04-03T15:07:31;14.00;99.90
24614;DHT22;12760;46.296;25.290;2023-04-03T15:10:00;14.00;99.90
24614;DHT22;12760;46.296;25.290;2023-04-03T15:12:27;13.90;99.90
24614;DHT22;12760;46.296;25.290;2023-04-03T15:14:52;13.80;99.90
24614;DHT22;12760;46.296;25.290;2023-04-03T15:17:21;13.70;99.90
24614;DHT22;12760;46.296;25.290;2023-04-03T15:19:48;13.60;99.90
24614;DHT22;12760;46.296;25.290;2023-04-03T15:22:18;13.60;99.90
24614;DHT22;12760;46.296;25.290;2023-04-03T15:24:44;13.60;99.90
24614;DHT22;12760;46.296;25.290;2023-04-03T15:27:12;13.50;99.90
24614;DHT22;12760;46.296;25.290;2023-04-03T15:29:40;13.40;99.90
24614;DHT22;12760;46.296;25.290;2023-04-03T15:32:07;13.30;99.90
24614;DHT22;12760;46.296;25.290;2023-04-03T15:34:34;13.20;99.90
24614;DHT22;12760;46.296;25.290;2023-04-03T15:37:00;13.20;99.90
24614;DHT22;12760;46.296;25.290;2023-04-03T15:39:26;13.10;99.90
24614;DHT22;12760;46.296;25.290;2023-04-03T15:41:52;13.10;99.90
24614;DHT22;12760;46.296;25.290;2023-04-03T15:44:19;13.10;99.90
24614;DHT22;12760;46.296;25.290;2023-04-03T15:46:46;13.20;99.90
24614;DHT22;12760;46.296;25.290;2023-04-03T15:49:12;13.30;99.90
24614;DHT22;12760;46.296;25.290;2023-04-03T15:51:38;13.30;99.90
24614;DHT22;12760;46.296;25.290;2023-04-03T15:54:04;13.30;99.90
24614;DHT22;12760;46.296;25.290;2023-04-03T15:56:30;13.40;99.90
24614;DHT22;12760;46.296;25.290;2023-04-03T15:58:56;13.40;99.90
24614;DHT22;12760;46.296;25.290;2023-04-03T16:01:22;13.50;99.90
24614;DHT22;12760;46.296;25.290;2023-04-03T16:03:47;13.50;99.90
24614;DHT22;12760;46.296;25.290;2023-04-03T16:06:17;13.40;99.90
24614;DHT22;12760;46.296;25.290;2023-04-03T16:08:44;13.40;99.90
24614;DHT22;12760;46.296;25.290;2023-04-03T16:11:12;13.40;99.90
24614;DHT22;12760;46.296;25.290;2023-04-03T16:13:38;13.50;99.90
24614;DHT22;12760;46.296;25.290;2023-04-03T16:16:04;13.50;99.90
24614;DHT22;12760;46.296;25.290;2023-04-03T16:18:30;13.40;99.90
24614;DHT22;12760;46.296;25.290;2023-04-03T16:20:56;13.30;99.90
24614;DHT22;12760;46.296;25.290;2023-04-03T16:23:23;13.30;99.90
24614;DHT22;12760;46.296;25.290;2023-04-03T16:25:49;13.30;99.90
24614;DHT22;12760;46.296;25.290;2023-04-03T16:28:17;13.20;99.90
24614;DHT22;12760;46.296;25.290;2023-04-03T16:30:44;13.20;99.90
24614;DHT22;12760;46.296;25.290;2023-04-03T16:33:12;13.20;99.90
24614;DHT22;12760;46.296;25.290;2023-04-03T16:35:39;13.20;99.90
24614;DHT22;12760;46.296;25.290;2023-04-03T16:38:05;13.10;99.90
24614;DHT22;12760;46.296;25.290;2023-04-03T16:40:31;13.20;99.90
24614;DHT22;12760;46.296;25.290;2023-04-03T16:42:56;13.10;99.90
24614;DHT22;12760;46.296;25.290;2023-04-03T16:45:22;13.00;99.90
24614;DHT22;12760;46.296;25.290;2023-04-03T16:47:48;12.90;99.90
24614;DHT22;12760;46.296;25.290;2023-04-03T16:50:13;12.90;99.90
24614;DHT22;12760;46.296;25.290;2023-04-03T16:52:39;12.90;99.90
24614;DHT22;12760;46.296;25.290;2023-04-03T16:55:06;12.90;99.90
24614;DHT22;12760;46.296;25.290;2023-04-03T16:57:31;12.90;99.90
24614;DHT22;12760;46.296;25.290;2023-04-03T16:59:57;12.90;99.90
24614;DHT22;12760;46.296;25.290;2023-04-03T17:02:23;12.90;99.90
24614;DHT22;12760;46.296;25.290;2023-04-03T17:04:53;12.80;99.90
24614;DHT22;12760;46.296;25.290;2023-04-03T17:07:20;12.80;99.90
24614;DHT22;12760;46.296;25.290;2023-04-03T17:09:47;12.80;99.90
24614;DHT22;12760;46.296;25.290;2023-04-03T17:12:13;12.80;99.90
24614;DHT22;12760;46.296;25.290;2023-04-03T17:14:39;12.80;99.90
24614;DHT22;12760;46.296;25.290;2023-04-03T17:17:05;12.70;99.90
24614;DHT22;12760;46.296;25.290;2023-04-03T17:19:33;12.70;99.90
24614;DHT22;12760;46.296;25.290;2023-04-03T17:22:00;12.70;99.90
24614;DHT22;12760;46.296;25.290;2023-04-03T17:24:26;12.70;99.90
24614;DHT22;12760;46.296;25.290;2023-04-03T17:26:52;12.70;99.90
24614;DHT22;12760;46.296;25.290;2023-04-03T17:29:18;12.60;99.90
24614;DHT22;12760;46.296;25.290;2023-04-03T17:31:43;12.60;99.90
24614;DHT22;12760;46.296;25.290;2023-04-03T17:34:09;12.60;99.90
24614;DHT22;12760;46.296;25.290;2023-04-03T17:36:37;12.50;99.90
24614;DHT22;12760;46.296;25.290;2023-04-03T17:39:04;12.50;99.90
24614;DHT22;12760;46.296;25.290;2023-04-03T17:41:30;12.40;99.90
24614;DHT22;12760;46.296;25.290;2023-04-03T17:43:56;12.50;99.90